Time;durP1;ratioP1;P1;durP2;ratioP2;P2;SDS_P1;SDS_P2;PMS_P1;PMS_P2;Temp;Humidity;BMP_temperature;BMP_pressure;BME280_temperature;BME280_humidity;BME280_pressure;Samples;Min_cycle;Max_cycle;Signal;HPM_P1;HPM_P2
2023/01/01 00:00:01;;;;;;;39.53;10.13;;;;;;;;;;5046389;28;20407;-77
2023/01/01 00:02:27;;;;;;;30.58;11.05;;;;;;;;;;5046527;28;20074;-77
2023/01/01 00:04:53;;;;;;;37.22;9.82;;;;;;;;;;5049587;28;20385;-79
2023/01/01 00:07:19;;;;;;;29.85;8.80;;;;;;;;;;5050061;28;20049;-77
2023/01/01 00:12:30;;;;;;;29.20;8.52;;;;;;;;;;5049080;28;20039;-78
2023/01/01 00:14:56;;;;;;;32.95;8.60;;;;;;;;;;5048964;28;20048;-77
2023/01/01 00:17:22;;;;;;;30.13;8.32;;;;;;;;;;5043808;28;20028;-77
2023/01/01 00:19:48;;;;;;;26.45;7.13;;;;;;;;;;5043120;28;20021;-77
2023/01/01 00:22:14;;;;;;;34.22;7.32;;;;;;;;;;5049693;28;20025;-78
2023/01/01 00:24:40;;;;;;;22.00;7.32;;;;;;;;;;5050718;28;20025;-77
2023/01/01 00:27:06;;;;;;;37.08;8.25;;;;;;;;;;5050132;28;20060;-76
2023/01/01 00:29:32;;;;;;;19.65;7.22;;;;;;;;;;5047453;28;20059;-77
2023/01/01 00:31:58;;;;;;;40.95;12.68;;;;;;;;;;5054093;28;20025;-77
2023/01/01 00:34:24;;;;;;;25.25;8.73;;;;;;;;;;5051819;28;20029;-78
2023/01/01 00:36:50;;;;;;;25.77;7.82;;;;;;;;;;5044665;28;20559;-79
2023/01/01 00:39:16;;;;;;;26.88;8.30;;;;;;;;;;5044505;28;20036;-79
2023/01/01 00:41:42;;;;;;;31.48;9.38;;;;;;;;;;5044033;28;20029;-78
2023/01/01 00:44:08;;;;;;;31.55;10.73;;;;;;;;;;5038861;28;20028;-77
2023/01/01 00:46:34;;;;;;;28.95;10.35;;;;;;;;;;5039054;28;20025;-78
2023/01/01 00:49:00;;;;;;;26.50;9.35;;;;;;;;;;5042041;28;20044;-78
2023/01/01 00:51:25;;;;;;;33.65;9.70;;;;;;;;;;5040875;28;20025;-77
2023/01/01 00:53:51;;;;;;;30.05;10.05;;;;;;;;;;5041078;28;20052;-76
2023/01/01 00:56:17;;;;;;;36.22;10.82;;;;;;;;;;5041390;28;20104;-78
2023/01/01 00:58:44;;;;;;;40.65;9.90;;;;;;;;;;5037810;28;20028;-76
2023/01/01 01:01:10;;;;;;;38.88;11.98;;;;;;;;;;5036952;28;20382;-78
2023/01/01 01:03:37;;;;;;;35.92;11.85;;;;;;;;;;5052249;28;20287;-79
2023/01/01 01:06:03;;;;;;;41.50;12.25;;;;;;;;;;5057428;28;20024;-79
2023/01/01 01:08:31;;;;;;;27.73;10.05;;;;;;;;;;5059267;28;20088;-80
2023/01/01 01:11:04;;;;;;;31.48;10.23;;;;;;;;;;5061711;28;20029;-77
2023/01/01 01:13:30;;;;;;;30.58;10.18;;;;;;;;;;5061566;28;20021;-77
2023/01/01 01:15:55;;;;;;;41.15;9.57;;;;;;;;;;5065504;28;20029;-79
2023/01/01 01:18:21;;;;;;;34.63;10.07;;;;;;;;;;5065121;28;20028;-79
2023/01/01 01:20:51;;;;;;;25.48;7.85;;;;;;;;;;5066446;28;20037;-77
2023/01/01 01:23:18;;;;;;;23.08;8.05;;;;;;;;;;5062744;28;20084;-78
2023/01/01 01:25:44;;;;;;;39.97;15.10;;;;;;;;;;5063562;28;20037;-77
2023/01/01 01:28:10;;;;;;;53.47;14.77;;;;;;;;;;5067308;28;20036;-80
2023/01/01 01:30:39;;;;;;;23.67;7.20;;;;;;;;;;5067170;28;20020;-77
2023/01/01 01:33:05;;;;;;;33.03;7.05;;;;;;;;;;5063302;28;20017;-78
2023/01/01 01:35:32;;;;;;;31.63;6.57;;;;;;;;;;5068420;28;20063;-78
2023/01/01 01:37:58;;;;;;;27.45;6.82;;;;;;;;;;5061725;28;20087;-77
2023/01/01 01:40:24;;;;;;;23.23;6.95;;;;;;;;;;5058159;28;20504;-79
2023/01/01 01:42:50;;;;;;;25.13;6.20;;;;;;;;;;5057328;28;20040;-79
2023/01/01 01:45:17;;;;;;;25.67;5.78;;;;;;;;;;5057812;28;20033;-78
2023/01/01 01:47:49;;;;;;;28.15;6.28;;;;;;;;;;5058067;28;20424;-77
2023/01/01 01:50:36;;;;;;;24.45;6.35;;;;;;;;;;5057081;28;20021;-80
2023/01/01 01:53:04;;;;;;;23.88;6.55;;;;;;;;;;5055481;28;20093;-78
2023/01/01 01:55:32;;;;;;;24.40;6.07;;;;;;;;;;5056717;28;20029;-79
2023/01/01 01:57:58;;;;;;;34.20;6.80;;;;;;;;;;5056218;28;20025;-79
2023/01/01 02:00:24;;;;;;;21.00;6.15;;;;;;;;;;5057150;28;20135;-78
2023/01/01 02:02:53;;;;;;;27.15;6.57;;;;;;;;;;5061159;28;20108;-80
2023/01/01 02:05:19;;;;;;;25.13;6.60;;;;;;;;;;5059867;28;20021;-79
2023/01/01 02:07:46;;;;;;;27.30;7.10;;;;;;;;;;5062499;28;20021;-79
2023/01/01 02:10:12;;;;;;;25.42;6.40;;;;;;;;;;5060171;28;20093;-76
2023/01/01 02:12:38;;;;;;;26.58;6.88;;;;;;;;;;5061168;28;20053;-79
2023/01/01 02:15:04;;;;;;;20.55;5.95;;;;;;;;;;5063526;28;20029;-79
2023/01/01 02:17:33;;;;;;;35.20;5.95;;;;;;;;;;5063018;28;20056;-78
2023/01/01 02:20:08;;;;;;;22.67;7.50;;;;;;;;;;5063878;28;20033;-79
2023/01/01 02:22:50;;;;;;;20.38;6.13;;;;;;;;;;5063622;28;20029;-79
2023/01/01 02:25:39;;;;;;;24.33;6.35;;;;;;;;;;5062093;28;20049;-77
2023/01/01 02:28:25;;;;;;;33.25;6.32;;;;;;;;;;5063120;28;20037;-78
2023/01/01 02:30:53;;;;;;;25.90;5.75;;;;;;;;;;5029887;28;20036;-78
2023/01/01 02:33:21;;;;;;;29.77;6.40;;;;;;;;;;5063027;28;20033;-79
2023/01/01 02:35:53;;;;;;;31.70;7.38;;;;;;;;;;5061255;28;20116;-79
2023/01/01 02:38:31;;;;;;;27.33;6.55;;;;;;;;;;5061989;28;20029;-79
2023/01/01 02:41:26;;;;;;;30.73;6.53;;;;;;;;;;5064040;28;20028;-78
2023/01/01 02:43:52;;;;;;;21.02;6.65;;;;;;;;;;5052596;28;20464;-78
2023/01/01 02:46:18;;;;;;;19.02;7.07;;;;;;;;;;5061229;28;20025;-78
2023/01/01 02:48:46;;;;;;;31.80;6.90;;;;;;;;;;5061232;28;20088;-77
2023/01/01 02:51:30;;;;;;;27.23;6.85;;;;;;;;;;5060891;28;20032;-79
2023/01/01 02:54:06;;;;;;;24.92;6.72;;;;;;;;;;5063106;28;20044;-77
2023/01/01 02:56:41;;;;;;;31.30;7.38;;;;;;;;;;5063024;28;20085;-78
2023/01/01 03:02:00;;;;;;;25.60;8.10;;;;;;;;;;5070198;28;20068;-77
2023/01/01 03:04:49;;;;;;;27.40;8.07;;;;;;;;;;5071414;28;20009;-75
2023/01/01 03:07:26;;;;;;;34.28;8.40;;;;;;;;;;5067233;28;20029;-76
2023/01/01 03:09:55;;;;;;;19.95;6.68;;;;;;;;;;5078164;28;20025;-75
2023/01/01 03:12:24;;;;;;;33.00;8.90;;;;;;;;;;5078281;28;20124;-75
2023/01/01 03:14:58;;;;;;;27.48;8.32;;;;;;;;;;5069702;28;20229;-77
2023/01/01 03:17:25;;;;;;;26.52;8.50;;;;;;;;;;5063771;28;20033;-77
2023/01/01 03:19:52;;;;;;;28.65;8.88;;;;;;;;;;5064041;28;20113;-77
2023/01/01 03:22:19;;;;;;;26.88;8.20;;;;;;;;;;5056098;28;20053;-78
2023/01/01 03:24:46;;;;;;;27.83;8.15;;;;;;;;;;5054824;28;20432;-77
2023/01/01 03:27:25;;;;;;;22.88;8.00;;;;;;;;;;5054850;28;20025;-79
2023/01/01 03:29:52;;;;;;;27.40;9.30;;;;;;;;;;5055175;28;20035;-79
2023/01/01 03:32:21;;;;;;;25.30;8.35;;;;;;;;;;5065467;28;20032;-76
2023/01/01 03:34:51;;;;;;;20.40;8.63;;;;;;;;;;5053604;28;20081;-77
2023/01/01 03:37:21;;;;;;;28.38;9.90;;;;;;;;;;5036809;28;20063;-76
2023/01/01 03:39:49;;;;;;;27.80;10.55;;;;;;;;;;5034023;28;20076;-76
2023/01/01 03:42:25;;;;;;;28.98;9.10;;;;;;;;;;5032880;28;20100;-76
2023/01/01 03:45:13;;;;;;;27.92;9.20;;;;;;;;;;5033775;28;20017;-77
2023/01/01 03:47:39;;;;;;;31.52;10.02;;;;;;;;;;5034129;28;20028;-77
2023/01/01 03:50:05;;;;;;;35.10;10.90;;;;;;;;;;5033589;28;20029;-78
2023/01/01 03:52:41;;;;;;;33.03;11.02;;;;;;;;;;5035876;28;20025;-77
2023/01/01 03:55:09;;;;;;;27.85;11.50;;;;;;;;;;5034733;28;20296;-76
2023/01/01 03:57:54;;;;;;;28.17;10.48;;;;;;;;;;5032363;28;20025;-77
2023/01/01 04:00:22;;;;;;;35.30;10.57;;;;;;;;;;5034054;28;20026;-77
2023/01/01 04:02:54;;;;;;;33.85;10.57;;;;;;;;;;5033786;28;20021;-77
2023/01/01 04:05:20;;;;;;;29.98;9.50;;;;;;;;;;5034452;28;20025;-77
2023/01/01 04:07:47;;;;;;;37.03;9.60;;;;;;;;;;5037941;28;20022;-75
2023/01/01 04:10:16;;;;;;;21.75;10.20;;;;;;;;;;5039564;28;20059;-78
2023/01/01 04:12:44;;;;;;;26.80;10.32;;;;;;;;;;5037937;28;20052;-77
2023/01/01 04:15:10;;;;;;;25.02;8.77;;;;;;;;;;5041364;28;20056;-76
2023/01/01 04:17:36;;;;;;;22.92;8.55;;;;;;;;;;5040337;28;20071;-77
2023/01/01 04:20:02;;;;;;;30.27;8.90;;;;;;;;;;5039172;28;20120;-76
2023/01/01 04:22:28;;;;;;;28.73;9.50;;;;;;;;;;5042105;28;20077;-77
2023/01/01 04:24:54;;;;;;;29.52;8.65;;;;;;;;;;5041004;28;20049;-79
2023/01/01 04:27:20;;;;;;;23.27;7.85;;;;;;;;;;5050320;28;20017;-78
2023/01/01 04:29:46;;;;;;;24.08;8.10;;;;;;;;;;5053924;28;20049;-76
2023/01/01 04:32:12;;;;;;;32.80;8.63;;;;;;;;;;5053289;28;20079;-77
2023/01/01 04:34:38;;;;;;;29.38;9.20;;;;;;;;;;5052120;28;20026;-75
2023/01/01 04:37:04;;;;;;;26.85;8.43;;;;;;;;;;5050215;28;20030;-76
2023/01/01 04:39:30;;;;;;;24.30;8.07;;;;;;;;;;5037397;28;20030;-77
2023/01/01 04:41:56;;;;;;;26.38;8.23;;;;;;;;;;5031917;28;20048;-77
2023/01/01 04:44:22;;;;;;;29.98;7.35;;;;;;;;;;5032203;28;20022;-76
2023/01/01 04:46:48;;;;;;;24.83;7.25;;;;;;;;;;5031259;28;20105;-77
2023/01/01 04:49:14;;;;;;;20.92;8.10;;;;;;;;;;5031653;28;20025;-77
2023/01/01 04:51:40;;;;;;;23.20;7.35;;;;;;;;;;5031674;28;20406;-77
2023/01/01 04:54:06;;;;;;;24.77;7.40;;;;;;;;;;5032894;28;20029;-78
2023/01/01 04:56:32;;;;;;;23.05;7.72;;;;;;;;;;5030086;28;20033;-78
2023/01/01 04:58:58;;;;;;;27.75;6.95;;;;;;;;;;5031916;28;20437;-77
2023/01/01 05:01:25;;;;;;;20.65;7.68;;;;;;;;;;5032034;28;20017;-78
2023/01/01 05:03:51;;;;;;;24.15;6.57;;;;;;;;;;5031988;28;20037;-77
2023/01/01 05:06:17;;;;;;;22.90;5.95;;;;;;;;;;5034354;28;20030;-79
2023/01/01 05:08:44;;;;;;;22.50;6.80;;;;;;;;;;5034512;28;20018;-77
2023/01/01 05:11:10;;;;;;;22.02;6.60;;;;;;;;;;5030811;28;20116;-77
2023/01/01 05:13:37;;;;;;;27.15;6.20;;;;;;;;;;5037022;28;20049;-77
2023/01/01 05:16:04;;;;;;;20.90;5.82;;;;;;;;;;5035673;28;20084;-77
2023/01/01 05:18:30;;;;;;;22.15;6.00;;;;;;;;;;5030449;28;20066;-77
2023/01/01 05:21:02;;;;;;;23.08;6.13;;;;;;;;;;5031268;28;20125;-78
2023/01/01 05:23:28;;;;;;;20.33;4.60;;;;;;;;;;5035847;28;20029;-77
2023/01/01 05:25:54;;;;;;;19.63;5.78;;;;;;;;;;5029881;28;20024;-77
2023/01/01 05:28:20;;;;;;;24.45;5.57;;;;;;;;;;5046037;28;20033;-77
2023/01/01 05:30:46;;;;;;;18.02;4.78;;;;;;;;;;5045279;28;20079;-77
2023/01/01 05:33:12;;;;;;;16.55;5.20;;;;;;;;;;5036838;28;20037;-76
2023/01/01 05:35:38;;;;;;;24.50;5.75;;;;;;;;;;5044869;28;20029;-78
2023/01/01 05:38:04;;;;;;;19.30;5.20;;;;;;;;;;5050244;28;20029;-77
2023/01/01 05:40:30;;;;;;;17.85;4.80;;;;;;;;;;5051570;28;20389;-77
2023/01/01 05:42:56;;;;;;;13.20;4.25;;;;;;;;;;5051924;28;20054;-77
2023/01/01 05:45:22;;;;;;;14.32;4.57;;;;;;;;;;5055313;28;20021;-77
2023/01/01 05:47:48;;;;;;;20.00;5.03;;;;;;;;;;5055367;28;20425;-77
2023/01/01 05:50:14;;;;;;;17.17;4.25;;;;;;;;;;5054983;28;20029;-77
2023/01/01 05:52:40;;;;;;;23.85;5.35;;;;;;;;;;5062066;28;20013;-77
2023/01/01 05:55:06;;;;;;;11.57;4.30;;;;;;;;;;5059136;28;20402;-77
2023/01/01 05:57:32;;;;;;;22.55;4.90;;;;;;;;;;5063559;28;20036;-79
2023/01/01 05:59:58;;;;;;;17.20;5.10;;;;;;;;;;5055838;28;20277;-77
2023/01/01 06:02:24;;;;;;;24.20;4.97;;;;;;;;;;5054841;28;20079;-78
2023/01/01 06:04:50;;;;;;;21.42;5.35;;;;;;;;;;5055206;28;20037;-78
2023/01/01 06:07:16;;;;;;;20.85;5.53;;;;;;;;;;5054940;28;20025;-78
2023/01/01 06:09:42;;;;;;;25.98;4.95;;;;;;;;;;5055532;28;20132;-80
2023/01/01 06:12:08;;;;;;;19.85;4.55;;;;;;;;;;5056420;28;20067;-78
2023/01/01 06:14:34;;;;;;;17.23;4.97;;;;;;;;;;5056190;28;20081;-77
2023/01/01 06:17:00;;;;;;;26.77;4.72;;;;;;;;;;5067237;28;20014;-78
2023/01/01 06:19:26;;;;;;;14.95;4.05;;;;;;;;;;5047086;28;20070;-78
2023/01/01 06:21:51;;;;;;;15.50;4.05;;;;;;;;;;5062389;28;20029;-77
2023/01/01 06:24:17;;;;;;;22.45;4.88;;;;;;;;;;5063708;28;20060;-77
2023/01/01 06:26:43;;;;;;;25.02;4.43;;;;;;;;;;5072009;28;20040;-77
2023/01/01 06:29:09;;;;;;;17.02;4.03;;;;;;;;;;5041589;28;20025;-77
2023/01/01 06:31:35;;;;;;;19.45;4.30;;;;;;;;;;5041009;28;20483;-78
2023/01/01 06:34:01;;;;;;;12.27;4.07;;;;;;;;;;5034434;28;20372;-77
2023/01/01 06:36:27;;;;;;;15.98;3.97;;;;;;;;;;5046267;28;20402;-77
2023/01/01 06:38:54;;;;;;;16.13;4.28;;;;;;;;;;5040864;28;20102;-78
2023/01/01 06:41:21;;;;;;;15.05;3.63;;;;;;;;;;5048753;28;20022;-79
2023/01/01 06:43:48;;;;;;;13.93;3.72;;;;;;;;;;5050765;28;20470;-76
2023/01/01 06:46:24;;;;;;;16.33;3.55;;;;;;;;;;5047050;28;20025;-79
2023/01/01 06:48:52;;;;;;;15.48;3.42;;;;;;;;;;5034061;28;20056;-79
2023/01/01 06:51:22;;;;;;;17.35;3.92;;;;;;;;;;5036412;28;20556;-78
2023/01/01 06:53:48;;;;;;;16.27;3.85;;;;;;;;;;5049883;28;20383;-78
2023/01/01 06:56:14;;;;;;;22.50;4.28;;;;;;;;;;5045300;28;20083;-79
2023/01/01 06:58:40;;;;;;;18.05;3.88;;;;;;;;;;5039558;28;20096;-78
2023/01/01 07:01:07;;;;;;;22.70;4.60;;;;;;;;;;5039315;28;20112;-78
2023/01/01 07:03:33;;;;;;;16.17;3.42;;;;;;;;;;5040932;28;20115;-78
2023/01/01 07:05:59;;;;;;;22.45;3.97;;;;;;;;;;5043295;28;20021;-78
2023/01/01 07:08:25;;;;;;;12.40;3.70;;;;;;;;;;5052633;28;20040;-77
2023/01/01 07:10:51;;;;;;;16.52;3.40;;;;;;;;;;5043859;28;20053;-77
2023/01/01 07:13:17;;;;;;;13.40;3.50;;;;;;;;;;5050513;28;20034;-79
2023/01/01 07:15:43;;;;;;;16.67;3.42;;;;;;;;;;5047918;28;20037;-78
2023/01/01 07:18:09;;;;;;;15.98;3.53;;;;;;;;;;5047414;28;20032;-78
2023/01/01 07:20:35;;;;;;;14.02;3.50;;;;;;;;;;5046049;28;20052;-80
2023/01/01 07:23:01;;;;;;;18.23;3.33;;;;;;;;;;5055054;28;20025;-80
2023/01/01 07:25:28;;;;;;;16.60;3.90;;;;;;;;;;5060373;28;20074;-78
2023/01/01 07:27:53;;;;;;;12.93;3.72;;;;;;;;;;5058178;28;20024;-80
2023/01/01 07:30:19;;;;;;;11.30;3.30;;;;;;;;;;5057310;28;20029;-78
2023/01/01 07:32:45;;;;;;;18.63;3.30;;;;;;;;;;5075678;28;20041;-80
2023/01/01 07:35:11;;;;;;;18.13;3.45;;;;;;;;;;5073040;28;20024;-78
2023/01/01 07:37:37;;;;;;;20.98;3.30;;;;;;;;;;5066197;28;20021;-78
2023/01/01 07:40:03;;;;;;;13.00;3.42;;;;;;;;;;5070674;28;20037;-81
2023/01/01 07:42:29;;;;;;;17.65;3.10;;;;;;;;;;5071853;28;20076;-78
2023/01/01 07:44:55;;;;;;;19.42;3.10;;;;;;;;;;5063849;28;20021;-77
2023/01/01 07:47:22;;;;;;;13.43;2.92;;;;;;;;;;5061699;28;20037;-77
2023/01/01 07:49:49;;;;;;;14.38;3.10;;;;;;;;;;5067135;28;20539;-79
2023/01/01 07:52:15;;;;;;;20.90;3.40;;;;;;;;;;5056900;28;20021;-77
2023/01/01 07:54:41;;;;;;;12.05;3.13;;;;;;;;;;5057847;28;20505;-78
2023/01/01 07:57:07;;;;;;;13.27;3.35;;;;;;;;;;5057767;28;20031;-78
2023/01/01 07:59:33;;;;;;;14.55;3.05;;;;;;;;;;5055609;28;20511;-77
2023/01/01 08:01:59;;;;;;;14.93;3.10;;;;;;;;;;5034368;28;20474;-77
2023/01/01 08:04:25;;;;;;;14.80;3.20;;;;;;;;;;5034542;28;20032;-78
2023/01/01 08:06:51;;;;;;;8.20;2.30;;;;;;;;;;5038043;28;20017;-78
2023/01/01 08:09:17;;;;;;;14.85;3.22;;;;;;;;;;5036066;28;20105;-77
2023/01/01 08:11:44;;;;;;;10.30;2.42;;;;;;;;;;5042792;28;20057;-75
2023/01/01 08:14:10;;;;;;;12.65;2.67;;;;;;;;;;5045332;28;20036;-77
2023/01/01 08:16:41;;;;;;;9.52;2.40;;;;;;;;;;5040226;28;20030;-75
2023/01/01 08:19:07;;;;;;;14.10;2.38;;;;;;;;;;5057904;28;20026;-77
2023/01/01 08:21:33;;;;;;;9.18;2.10;;;;;;;;;;5058613;28;20036;-79
2023/01/01 08:23:58;;;;;;;9.77;2.42;;;;;;;;;;5058147;28;20144;-76
2023/01/01 08:26:32;;;;;;;11.23;2.03;;;;;;;;;;5058376;28;20014;-79
2023/01/01 08:28:58;;;;;;;16.38;2.63;;;;;;;;;;5057361;28;20090;-78
2023/01/01 08:31:24;;;;;;;12.15;1.92;;;;;;;;;;5037967;28;20470;-77
2023/01/01 08:33:50;;;;;;;10.23;2.10;;;;;;;;;;5034786;28;20029;-77
2023/01/01 08:36:16;;;;;;;9.82;2.28;;;;;;;;;;5036674;28;20043;-77
2023/01/01 08:38:43;;;;;;;9.40;2.05;;;;;;;;;;5041530;28;20037;-76
2023/01/01 08:41:09;;;;;;;8.95;1.92;;;;;;;;;;5045281;28;20049;-77
2023/01/01 08:43:35;;;;;;;10.38;1.92;;;;;;;;;;5049676;28;20033;-77
2023/01/01 08:46:01;;;;;;;6.68;1.83;;;;;;;;;;5038550;28;20079;-78
2023/01/01 08:48:27;;;;;;;6.93;2.15;;;;;;;;;;5036917;28;20036;-77
2023/01/01 08:50:59;;;;;;;10.57;2.10;;;;;;;;;;5034270;28;20490;-77
2023/01/01 08:53:25;;;;;;;9.68;2.20;;;;;;;;;;5034891;28;20021;-77
2023/01/01 08:55:58;;;;;;;15.57;2.35;;;;;;;;;;5034384;28;20032;-76
2023/01/01 08:58:24;;;;;;;7.45;1.80;;;;;;;;;;5032526;28;20028;-76
2023/01/01 09:00:50;;;;;;;7.53;2.10;;;;;;;;;;5032050;28;20034;-76
2023/01/01 09:03:15;;;;;;;14.48;1.95;;;;;;;;;;5032356;28;20029;-76
2023/01/01 09:05:44;;;;;;;10.73;2.03;;;;;;;;;;5032069;28;20037;-76
2023/01/01 09:08:11;;;;;;;6.95;2.00;;;;;;;;;;5032920;28;20072;-77
2023/01/01 09:10:37;;;;;;;16.90;2.00;;;;;;;;;;5034791;28;20510;-78
2023/01/01 09:13:03;;;;;;;16.77;2.17;;;;;;;;;;5033941;28;20037;-78
2023/01/01 09:15:30;;;;;;;7.00;1.83;;;;;;;;;;5032210;28;20482;-78
2023/01/01 09:17:55;;;;;;;5.47;1.67;;;;;;;;;;5033328;28;20052;-78
2023/01/01 09:20:21;;;;;;;10.15;2.17;;;;;;;;;;5049606;22;20052;-80
2023/01/01 09:22:47;;;;;;;5.72;1.63;;;;;;;;;;5050811;28;20033;-79
2023/01/01 09:25:13;;;;;;;7.72;2.60;;;;;;;;;;5053330;28;20055;-79
2023/01/01 09:27:39;;;;;;;10.30;1.90;;;;;;;;;;5053456;28;20030;-78
2023/01/01 09:30:06;;;;;;;12.02;1.92;;;;;;;;;;5053403;28;20033;-79
2023/01/01 09:32:32;;;;;;;7.78;2.10;;;;;;;;;;5054908;28;20041;-78
2023/01/01 09:34:59;;;;;;;9.63;1.70;;;;;;;;;;5052909;28;20029;-78
2023/01/01 09:37:25;;;;;;;11.75;2.13;;;;;;;;;;5045706;28;20022;-81
2023/01/01 09:39:51;;;;;;;11.80;2.40;;;;;;;;;;5042815;28;20032;-79
2023/01/01 09:42:23;;;;;;;10.10;2.53;;;;;;;;;;5044498;28;20432;-79
2023/01/01 09:45:08;;;;;;;6.72;1.70;;;;;;;;;;5048636;28;20025;-79
2023/01/01 09:47:39;;;;;;;12.18;2.15;;;;;;;;;;5042949;28;20033;-80
2023/01/01 09:50:07;;;;;;;13.40;2.05;;;;;;;;;;5047911;28;20026;-79
2023/01/01 09:52:50;;;;;;;10.57;2.38;;;;;;;;;;5051567;28;20040;-79
2023/01/01 09:55:20;;;;;;;10.95;2.03;;;;;;;;;;5058525;28;20033;-79
2023/01/01 09:57:46;;;;;;;9.73;1.92;;;;;;;;;;5060165;28;20036;-80
2023/01/01 10:00:14;;;;;;;10.52;1.92;;;;;;;;;;5060037;28;20022;-76
2023/01/01 10:02:53;;;;;;;10.07;1.30;;;;;;;;;;5059887;28;20097;-80
2023/01/01 10:05:19;;;;;;;13.27;2.00;;;;;;;;;;5060623;28;20281;-82
2023/01/01 10:08:14;;;;;;;12.07;2.63;;;;;;;;;;5045376;28;20444;-80
2023/01/01 10:10:44;;;;;;;12.98;2.55;;;;;;;;;;5033700;28;20049;-79
2023/01/01 10:13:29;;;;;;;8.52;1.60;;;;;;;;;;5048550;28;20021;-80
2023/01/01 10:16:09;;;;;;;9.00;1.73;;;;;;;;;;5049414;28;20048;-78
2023/01/01 10:18:37;;;;;;;9.88;1.85;;;;;;;;;;5047573;28;20394;-80
2023/01/01 10:21:06;;;;;;;10.48;2.13;;;;;;;;;;5047532;28;20025;-81
2023/01/01 10:23:39;;;;;;;7.93;2.60;;;;;;;;;;5042853;28;20017;-82
2023/01/01 10:26:09;;;;;;;9.15;2.05;;;;;;;;;;5042676;28;20029;-81
2023/01/01 10:28:56;;;;;;;11.90;2.30;;;;;;;;;;5042928;28;20026;-79
2023/01/01 10:31:29;;;;;;;12.05;1.92;;;;;;;;;;5030326;28;20064;-81
2023/01/01 10:33:55;;;;;;;6.57;1.50;;;;;;;;;;5046357;28;20032;-79
2023/01/01 10:36:21;;;;;;;10.98;2.22;;;;;;;;;;5053978;28;20025;-80
2023/01/01 10:38:48;;;;;;;8.85;1.80;;;;;;;;;;5045829;28;20045;-81
2023/01/01 10:41:15;;;;;;;7.80;1.65;;;;;;;;;;5044051;28;20021;-83
2023/01/01 10:43:41;;;;;;;7.78;1.58;;;;;;;;;;5045124;28;20021;-80
2023/01/01 10:46:10;;;;;;;8.80;1.90;;;;;;;;;;5043646;28;20017;-79
2023/01/01 10:48:36;;;;;;;7.80;1.85;;;;;;;;;;5041835;28;20087;-79
2023/01/01 10:51:06;;;;;;;14.65;2.55;;;;;;;;;;5046636;28;20051;-79
2023/01/01 10:53:35;;;;;;;144.88;46.67;;;;;;;;;;5044781;28;20033;-83
2023/01/01 10:56:04;;;;;;;16.27;3.35;;;;;;;;;;5045142;28;20059;-81
2023/01/01 10:58:39;;;;;;;15.48;2.85;;;;;;;;;;5045182;28;20068;-82
2023/01/01 11:01:07;;;;;;;15.85;2.53;;;;;;;;;;5046580;28;20017;-83
2023/01/01 11:03:33;;;;;;;11.60;2.00;;;;;;;;;;5042622;28;20029;-81
2023/01/01 11:06:01;;;;;;;15.07;2.47;;;;;;;;;;5054953;28;20009;-83
2023/01/01 11:08:28;;;;;;;13.43;2.67;;;;;;;;;;5053664;28;20441;-83
2023/01/01 11:10:55;;;;;;;13.90;2.72;;;;;;;;;;5047182;28;20029;-81
2023/01/01 11:13:21;;;;;;;13.50;2.13;;;;;;;;;;5051607;28;20121;-79
2023/01/01 11:15:47;;;;;;;14.90;2.10;;;;;;;;;;5051491;28;20036;-81
2023/01/01 11:18:15;;;;;;;16.33;2.28;;;;;;;;;;5051442;28;20033;-83
2023/01/01 11:20:41;;;;;;;14.75;1.98;;;;;;;;;;5051025;28;20029;-81
2023/01/01 11:23:17;;;;;;;17.45;2.97;;;;;;;;;;5049375;28;20132;-81
2023/01/01 11:25:56;;;;;;;22.10;4.22;;;;;;;;;;5050083;28;20071;-82
2023/01/01 11:28:22;;;;;;;19.45;2.65;;;;;;;;;;5043571;28;20044;-79
2023/01/01 11:30:59;;;;;;;13.52;2.50;;;;;;;;;;5052062;28;20021;-80
2023/01/01 11:33:26;;;;;;;14.45;2.10;;;;;;;;;;5051144;28;20056;-81
2023/01/01 11:35:56;;;;;;;10.10;2.42;;;;;;;;;;5044372;28;20025;-81
2023/01/01 11:38:23;;;;;;;11.43;2.53;;;;;;;;;;5049201;28;20025;-81
2023/01/01 11:40:50;;;;;;;12.50;2.10;;;;;;;;;;5050393;28;20033;-80
2023/01/01 11:43:24;;;;;;;13.60;2.05;;;;;;;;;;5044070;28;20076;-80
2023/01/01 11:45:50;;;;;;;16.98;2.70;;;;;;;;;;5045276;28;20052;-81
2023/01/01 11:48:35;;;;;;;15.57;2.38;;;;;;;;;;5032078;28;20056;-85
2023/01/01 11:51:02;;;;;;;10.63;1.90;;;;;;;;;;5055721;28;20036;-82
2023/01/01 11:53:40;;;;;;;11.93;1.80;;;;;;;;;;5058007;28;20022;-83
2023/01/01 11:56:06;;;;;;;9.63;2.00;;;;;;;;;;5036918;28;20057;-82
2023/01/01 11:58:50;;;;;;;13.68;2.40;;;;;;;;;;5052971;28;20068;-81
2023/01/01 12:01:31;;;;;;;12.27;2.03;;;;;;;;;;5047585;28;20033;-82
2023/01/01 12:04:02;;;;;;;10.80;1.80;;;;;;;;;;5042891;28;20029;-80
2023/01/01 12:06:31;;;;;;;16.77;1.95;;;;;;;;;;5031656;28;20078;-80
2023/01/01 12:09:18;;;;;;;16.02;2.28;;;;;;;;;;5036445;28;20041;-80
2023/01/01 12:11:47;;;;;;;12.40;2.38;;;;;;;;;;5046177;23;20141;-80
2023/01/01 12:14:19;;;;;;;11.82;2.08;;;;;;;;;;5038971;28;20054;-83
2023/01/01 12:16:52;;;;;;;10.02;1.90;;;;;;;;;;5043125;28;20375;-79
2023/01/01 12:19:22;;;;;;;11.75;2.00;;;;;;;;;;5045137;28;20030;-84
2023/01/01 12:21:50;;;;;;;14.00;2.22;;;;;;;;;;5031732;28;20034;-83
2023/01/01 12:24:17;;;;;;;11.57;2.30;;;;;;;;;;5037838;28;20014;-85
2023/01/01 12:26:53;;;;;;;11.95;2.13;;;;;;;;;;5029340;28;20037;-83
2023/01/01 12:29:34;;;;;;;13.20;2.55;;;;;;;;;;5028206;28;20076;-84
2023/01/01 12:32:00;;;;;;;13.60;1.90;;;;;;;;;;5017720;28;20028;-81
2023/01/01 12:34:30;;;;;;;15.88;2.20;;;;;;;;;;5001152;28;20033;-83
2023/01/01 12:37:04;;;;;;;17.95;3.28;;;;;;;;;;5022923;28;20025;-79
2023/01/01 12:39:30;;;;;;;13.25;2.78;;;;;;;;;;5030522;28;20038;-79
2023/01/01 12:42:04;;;;;;;16.35;3.53;;;;;;;;;;5031224;28;20033;-79
2023/01/01 12:44:46;;;;;;;10.73;2.58;;;;;;;;;;5028500;28;20076;-79
2023/01/01 12:47:23;;;;;;;8.63;1.67;;;;;;;;;;5031576;28;20033;-79
2023/01/01 12:49:57;;;;;;;9.05;1.98;;;;;;;;;;5030678;28;20029;-78
2023/01/01 12:52:35;;;;;;;8.73;2.30;;;;;;;;;;5031268;28;20018;-80
2023/01/01 12:55:07;;;;;;;8.95;1.65;;;;;;;;;;5033270;28;20275;-79
2023/01/01 12:57:43;;;;;;;9.57;1.80;;;;;;;;;;5024082;28;20052;-79
2023/01/01 13:00:14;;;;;;;9.80;1.77;;;;;;;;;;5029845;28;20034;-80
2023/01/01 13:02:46;;;;;;;12.05;2.10;;;;;;;;;;5029711;28;20022;-79
2023/01/01 13:05:17;;;;;;;13.40;2.40;;;;;;;;;;5030657;28;20026;-80
2023/01/01 13:07:46;;;;;;;10.10;1.83;;;;;;;;;;5028947;28;20033;-79
2023/01/01 13:10:21;;;;;;;10.85;2.33;;;;;;;;;;5052455;22;20044;-79
2023/01/01 13:12:47;;;;;;;;;;;;;;;;;;5060788;28;20072;-79
2023/01/01 13:15:31;;;;;;;12.88;3.20;;;;;;;;;;5043093;28;19905;-80
2023/01/01 13:17:57;;;;;;;13.30;2.78;;;;;;;;;;5044111;28;20025;-79
2023/01/01 13:20:25;;;;;;;11.80;2.28;;;;;;;;;;5045090;28;20056;-79
2023/01/01 13:22:51;;;;;;;15.32;2.05;;;;;;;;;;5047551;28;20048;-81
2023/01/01 13:25:17;;;;;;;8.73;2.15;;;;;;;;;;5045608;28;20021;-79
2023/01/01 13:30:43;;;;;;;9.30;2.10;;;;;;;;;;5045394;28;20474;-79
2023/01/01 13:33:22;;;;;;;13.90;2.17;;;;;;;;;;5040405;28;20022;-78
2023/01/01 13:36:12;;;;;;;13.60;2.30;;;;;;;;;;5036306;28;20121;-80
2023/01/01 13:38:50;;;;;;;14.40;2.33;;;;;;;;;;5022956;28;20038;-80
2023/01/01 13:41:35;;;;;;;16.20;2.58;;;;;;;;;;5021929;28;20030;-81
2023/01/01 13:44:04;;;;;;;13.98;2.45;;;;;;;;;;5022955;28;20022;-80
2023/01/01 13:46:50;;;;;;;19.25;3.40;;;;;;;;;;5023104;28;20049;-81
2023/01/01 13:49:19;;;;;;;14.20;2.55;;;;;;;;;;5023539;28;20080;-80
2023/01/01 13:51:57;;;;;;;15.43;2.35;;;;;;;;;;5024236;28;20026;-79
2023/01/01 13:54:26;;;;;;;12.60;2.20;;;;;;;;;;5036756;28;20030;-79
2023/01/01 13:56:52;;;;;;;19.42;2.92;;;;;;;;;;5028650;28;20025;-79
2023/01/01 13:59:38;;;;;;;11.95;2.88;;;;;;;;;;5025939;28;20030;-79
2023/01/01 14:02:10;;;;;;;18.98;3.17;;;;;;;;;;5020897;28;20026;-80
2023/01/01 14:05:06;;;;;;;16.00;3.28;;;;;;;;;;5026419;28;20017;-81
2023/01/01 14:07:41;;;;;;;14.32;2.60;;;;;;;;;;5022193;28;20030;-80
2023/01/01 14:10:17;;;;;;;18.23;3.17;;;;;;;;;;5025578;28;20061;-80
2023/01/01 14:12:43;;;;;;;13.27;2.63;;;;;;;;;;5026832;28;20033;-80
2023/01/01 14:15:23;;;;;;;15.43;2.70;;;;;;;;;;5022891;28;20025;-79
2023/01/01 14:17:49;;;;;;;15.43;2.55;;;;;;;;;;5022495;28;20032;-79
2023/01/01 14:20:17;;;;;;;18.15;2.78;;;;;;;;;;5027627;28;20026;-78
2023/01/01 14:22:44;;;;;;;16.17;2.50;;;;;;;;;;5029411;28;20054;-79
2023/01/01 14:25:19;;;;;;;13.38;2.33;;;;;;;;;;5031336;28;20088;-79
2023/01/01 14:27:45;;;;;;;18.33;2.53;;;;;;;;;;5030796;28;20022;-79
2023/01/01 14:30:18;;;;;;;18.75;2.17;;;;;;;;;;5031867;28;20085;-81
2023/01/01 14:32:44;;;;;;;17.08;3.40;;;;;;;;;;5026350;28;20030;-81
2023/01/01 14:35:15;;;;;;;15.88;3.13;;;;;;;;;;5022641;28;20056;-80
2023/01/01 14:37:41;;;;;;;17.77;3.03;;;;;;;;;;5023548;28;20544;-80
2023/01/01 14:40:29;;;;;;;22.27;3.58;;;;;;;;;;5027939;28;20033;-78
2023/01/01 14:42:58;;;;;;;18.38;3.08;;;;;;;;;;5030381;28;20040;-78
2023/01/01 14:45:24;;;;;;;17.45;3.33;;;;;;;;;;5033151;28;20022;-82
2023/01/01 14:47:52;;;;;;;15.52;3.88;;;;;;;;;;5037094;28;20069;-79
2023/01/01 14:50:20;;;;;;;18.38;2.92;;;;;;;;;;5033964;28;20026;-78